Stillwater, Canada
Current Conditions -  °F | °C
As of 7:00 PM on Saturday 20 Dec 2014 (Local Time) from CYPW Reporting Station
Light Rain Light Rain  
Wind Chill: 40°   Ceiling: 1200
Heat Index: 45°   Visibility: 20mi
Dew Point: 43°   Wind: 9mph
Humidity: 93%   Direction: 110°ESE
Pressure: 29.28"   Gusts: NA
Location:  49.77°N, 124.3°W
Report Text: CYPW 210300Z 11008KT 20SM -RA FEW004 BKN012 OVC030 07/06 A2928 RMK SF1SF5SC3 SF TR LAST OBS/NEXT211500UTC SLP918
Loading
Personal Weather Stations






























Interactive Weather Map New forecast layout! Learn more

10-Day Weather Forecast

Advertisements
Track Severe Weather on mobile